sensor_id;sensor_type;location;lat;lon;timestamp;temperature;humidity
17994;DHT22;9122;48.406;9.984;2023-02-25T00:00:35;7.40;93.80
17994;DHT22;9122;48.406;9.984;2023-02-25T00:03:19;7.40;93.90
17994;DHT22;9122;48.406;9.984;2023-02-25T00:06:06;7.40;93.90
17994;DHT22;9122;48.406;9.984;2023-02-25T00:08:52;7.40;93.90
17994;DHT22;9122;48.406;9.984;2023-02-25T00:11:37;7.30;93.80
17994;DHT22;9122;48.406;9.984;2023-02-25T00:14:22;7.30;93.90
17994;DHT22;9122;48.406;9.984;2023-02-25T00:17:06;7.30;93.80
17994;DHT22;9122;48.406;9.984;2023-02-25T00:19:51;7.20;93.90
17994;DHT22;9122;48.406;9.984;2023-02-25T00:22:36;7.20;94.00
17994;DHT22;9122;48.406;9.984;2023-02-25T00:25:21;7.20;94.00
17994;DHT22;9122;48.406;9.984;2023-02-25T00:28:06;7.10;93.90
17994;DHT22;9122;48.406;9.984;2023-02-25T00:30:51;7.10;94.00
17994;DHT22;9122;48.406;9.984;2023-02-25T00:33:35;7.10;94.10
17994;DHT22;9122;48.406;9.984;2023-02-25T00:36:23;7.10;94.10
17994;DHT22;9122;48.406;9.984;2023-02-25T00:39:07;7.00;94.00
17994;DHT22;9122;48.406;9.984;2023-02-25T00:41:52;7.00;94.10
17994;DHT22;9122;48.406;9.984;2023-02-25T00:44:37;7.00;94.20
17994;DHT22;9122;48.406;9.984;2023-02-25T00:47:22;7.10;94.20
17994;DHT22;9122;48.406;9.984;2023-02-25T00:50:07;7.00;94.20
17994;DHT22;9122;48.406;9.984;2023-02-25T00:52:53;7.00;94.30
17994;DHT22;9122;48.406;9.984;2023-02-25T00:55:40;7.20;94.30
17994;DHT22;9122;48.406;9.984;2023-02-25T00:58:24;7.00;94.30
17994;DHT22;9122;48.406;9.984;2023-02-25T01:01:27;6.90;94.40
17994;DHT22;9122;48.406;9.984;2023-02-25T01:04:12;6.90;94.50
17994;DHT22;9122;48.406;9.984;2023-02-25T01:06:56;6.80;94.50
17994;DHT22;9122;48.406;9.984;2023-02-25T01:09:43;6.90;94.50
17994;DHT22;9122;48.406;9.984;2023-02-25T01:12:31;6.80;94.60
17994;DHT22;9122;48.406;9.984;2023-02-25T01:15:15;6.80;94.60
17994;DHT22;9122;48.406;9.984;2023-02-25T01:18:00;6.80;94.70
17994;DHT22;9122;48.406;9.984;2023-02-25T01:20:44;6.80;94.80
17994;DHT22;9122;48.406;9.984;2023-02-25T01:23:29;6.80;94.90
17994;DHT22;9122;48.406;9.984;2023-02-25T01:26:14;6.80;94.90
17994;DHT22;9122;48.406;9.984;2023-02-25T01:28:59;6.80;95.00
17994;DHT22;9122;48.406;9.984;2023-02-25T01:31:44;6.70;94.90
17994;DHT22;9122;48.406;9.984;2023-02-25T01:34:29;6.70;94.90
17994;DHT22;9122;48.406;9.984;2023-02-25T01:37:14;6.70;95.00
17994;DHT22;9122;48.406;9.984;2023-02-25T01:39:58;6.70;95.00
17994;DHT22;9122;48.406;9.984;2023-02-25T01:42:44;6.70;95.10
17994;DHT22;9122;48.406;9.984;2023-02-25T01:45:30;6.60;95.10
17994;DHT22;9122;48.406;9.984;2023-02-25T01:48:18;6.60;95.10
17994;DHT22;9122;48.406;9.984;2023-02-25T01:51:09;6.60;95.10
17994;DHT22;9122;48.406;9.984;2023-02-25T01:54:00;6.60;95.20
17994;DHT22;9122;48.406;9.984;2023-02-25T01:56:51;6.50;95.20
17994;DHT22;9122;48.406;9.984;2023-02-25T01:59:36;6.50;95.20
17994;DHT22;9122;48.406;9.984;2023-02-25T02:02:22;6.50;95.20
17994;DHT22;9122;48.406;9.984;2023-02-25T02:05:09;6.50;95.20
17994;DHT22;9122;48.406;9.984;2023-02-25T02:07:54;6.50;95.30
17994;DHT22;9122;48.406;9.984;2023-02-25T02:10:39;6.40;95.30
17994;DHT22;9122;48.406;9.984;2023-02-25T02:13:23;6.40;95.40
17994;DHT22;9122;48.406;9.984;2023-02-25T02:40:51;6.30;95.70
17994;DHT22;9122;48.406;9.984;2023-02-25T02:49:49;6.30;95.60
17994;DHT22;9122;48.406;9.984;2023-02-25T02:52:42;6.20;95.70
17994;DHT22;9122;48.406;9.984;2023-02-25T02:55:38;6.20;95.70
17994;DHT22;9122;48.406;9.984;2023-02-25T02:58:31;6.20;95.70
17994;DHT22;9122;48.406;9.984;2023-02-25T03:01:20;6.20;95.80
17994;DHT22;9122;48.406;9.984;2023-02-25T03:04:11;6.20;95.80
17994;DHT22;9122;48.406;9.984;2023-02-25T03:07:00;6.20;95.90
17994;DHT22;9122;48.406;9.984;2023-02-25T03:09:49;6.20;95.90
17994;DHT22;9122;48.406;9.984;2023-02-25T03:12:34;6.20;96.00
17994;DHT22;9122;48.406;9.984;2023-02-25T03:15:22;6.20;96.00
17994;DHT22;9122;48.406;9.984;2023-02-25T03:18:17;6.10;95.90
17994;DHT22;9122;48.406;9.984;2023-02-25T03:21:14;6.10;96.00
17994;DHT22;9122;48.406;9.984;2023-02-25T03:24:02;6.20;96.00
17994;DHT22;9122;48.406;9.984;2023-02-25T03:26:51;6.10;95.90
17994;DHT22;9122;48.406;9.984;2023-02-25T03:29:35;6.10;95.90
17994;DHT22;9122;48.406;9.984;2023-02-25T03:32:21;6.10;95.80
17994;DHT22;9122;48.406;9.984;2023-02-25T03:35:08;6.10;95.70
17994;DHT22;9122;48.406;9.984;2023-02-25T03:37:59;6.40;95.70
17994;DHT22;9122;48.406;9.984;2023-02-25T03:40:47;6.10;95.60
17994;DHT22;9122;48.406;9.984;2023-02-25T03:43:37;6.00;95.50
17994;DHT22;9122;48.406;9.984;2023-02-25T03:46:26;6.00;95.50
17994;DHT22;9122;48.406;9.984;2023-02-25T03:49:20;6.00;95.50
17994;DHT22;9122;48.406;9.984;2023-02-25T03:52:12;6.00;95.50
17994;DHT22;9122;48.406;9.984;2023-02-25T03:54:58;6.00;95.60
17994;DHT22;9122;48.406;9.984;2023-02-25T03:57:44;6.00;95.70
17994;DHT22;9122;48.406;9.984;2023-02-25T04:00:31;6.00;95.70
17994;DHT22;9122;48.406;9.984;2023-02-25T04:03:19;6.00;95.60
17994;DHT22;9122;48.406;9.984;2023-02-25T04:06:04;6.00;95.70
17994;DHT22;9122;48.406;9.984;2023-02-25T04:08:48;5.90;95.70
17994;DHT22;9122;48.406;9.984;2023-02-25T04:11:33;6.00;95.80
17994;DHT22;9122;48.406;9.984;2023-02-25T04:14:17;5.90;95.70
17994;DHT22;9122;48.406;9.984;2023-02-25T04:17:02;5.90;95.50
17994;DHT22;9122;48.406;9.984;2023-02-25T04:19:49;5.90;95.30
17994;DHT22;9122;48.406;9.984;2023-02-25T04:22:36;5.90;95.10
17994;DHT22;9122;48.406;9.984;2023-02-25T04:25:20;5.90;94.90
17994;DHT22;9122;48.406;9.984;2023-02-25T04:28:05;5.90;94.70
17994;DHT22;9122;48.406;9.984;2023-02-25T04:30:50;5.80;94.50
17994;DHT22;9122;48.406;9.984;2023-02-25T04:33:34;5.90;94.40
17994;DHT22;9122;48.406;9.984;2023-02-25T04:36:30;5.80;94.30
17994;DHT22;9122;48.406;9.984;2023-02-25T04:39:15;5.80;94.20
17994;DHT22;9122;48.406;9.984;2023-02-25T04:42:00;5.90;94.40
17994;DHT22;9122;48.406;9.984;2023-02-25T04:44:45;5.80;94.50
17994;DHT22;9122;48.406;9.984;2023-02-25T04:47:29;5.80;94.60
17994;DHT22;9122;48.406;9.984;2023-02-25T04:50:14;5.80;94.60
17994;DHT22;9122;48.406;9.984;2023-02-25T04:53:00;5.80;94.70
17994;DHT22;9122;48.406;9.984;2023-02-25T04:55:48;5.80;94.90
17994;DHT22;9122;48.406;9.984;2023-02-25T04:58:33;5.80;95.00
17994;DHT22;9122;48.406;9.984;2023-02-25T05:01:18;5.80;95.10
17994;DHT22;9122;48.406;9.984;2023-02-25T05:04:03;5.80;95.20
17994;DHT22;9122;48.406;9.984;2023-02-25T05:06:48;5.80;95.20
17994;DHT22;9122;48.406;9.984;2023-02-25T05:09:33;5.70;95.20
17994;DHT22;9122;48.406;9.984;2023-02-25T05:12:17;5.80;95.30
17994;DHT22;9122;48.406;9.984;2023-02-25T05:15:03;5.90;95.30
17994;DHT22;9122;48.406;9.984;2023-02-25T05:17:47;5.70;95.40
17994;DHT22;9122;48.406;9.984;2023-02-25T05:20:32;5.70;95.40
17994;DHT22;9122;48.406;9.984;2023-02-25T05:23:16;5.70;95.40
17994;DHT22;9122;48.406;9.984;2023-02-25T05:26:01;5.70;95.40
17994;DHT22;9122;48.406;9.984;2023-02-25T05:28:54;5.70;95.40
17994;DHT22;9122;48.406;9.984;2023-02-25T05:31:39;5.70;95.40
17994;DHT22;9122;48.406;9.984;2023-02-25T05:34:24;5.70;95.40
17994;DHT22;9122;48.406;9.984;2023-02-25T05:37:08;5.70;95.40
17994;DHT22;9122;48.406;9.984;2023-02-25T05:39:53;5.70;95.40
17994;DHT22;9122;48.406;9.984;2023-02-25T05:42:38;5.70;95.30
17994;DHT22;9122;48.406;9.984;2023-02-25T05:45:23;5.70;95.10
17994;DHT22;9122;48.406;9.984;2023-02-25T05:48:08;5.60;95.30
17994;DHT22;9122;48.406;9.984;2023-02-25T05:51:04;5.60;95.50
17994;DHT22;9122;48.406;9.984;2023-02-25T05:53:50;5.60;95.50
17994;DHT22;9122;48.406;9.984;2023-02-25T05:56:34;5.60;95.60
17994;DHT22;9122;48.406;9.984;2023-02-25T05:59:18;5.60;95.60
17994;DHT22;9122;48.406;9.984;2023-02-25T06:02:03;5.80;95.70
17994;DHT22;9122;48.406;9.984;2023-02-25T06:04:48;5.60;95.60
17994;DHT22;9122;48.406;9.984;2023-02-25T06:07:35;5.60;95.40
17994;DHT22;9122;48.406;9.984;2023-02-25T06:10:20;5.50;95.10
17994;DHT22;9122;48.406;9.984;2023-02-25T06:13:06;5.60;94.80
17994;DHT22;9122;48.406;9.984;2023-02-25T06:15:51;5.50;94.00
17994;DHT22;9122;48.406;9.984;2023-02-25T06:18:36;5.50;93.70
17994;DHT22;9122;48.406;9.984;2023-02-25T06:21:23;5.50;93.50
17994;DHT22;9122;48.406;9.984;2023-02-25T06:24:09;5.50;93.20
17994;DHT22;9122;48.406;9.984;2023-02-25T06:26:54;5.50;93.20
17994;DHT22;9122;48.406;9.984;2023-02-25T06:29:38;5.40;93.10
17994;DHT22;9122;48.406;9.984;2023-02-25T06:32:24;5.40;93.00
17994;DHT22;9122;48.406;9.984;2023-02-25T06:35:12;5.40;92.90
17994;DHT22;9122;48.406;9.984;2023-02-25T06:37:59;5.40;92.70
17994;DHT22;9122;48.406;9.984;2023-02-25T06:40:43;5.40;92.60
17994;DHT22;9122;48.406;9.984;2023-02-25T06:43:28;5.40;92.60
17994;DHT22;9122;48.406;9.984;2023-02-25T06:46:13;5.60;92.40
17994;DHT22;9122;48.406;9.984;2023-02-25T06:48:58;5.40;92.30
17994;DHT22;9122;48.406;9.984;2023-02-25T06:51:42;5.40;92.30
17994;DHT22;9122;48.406;9.984;2023-02-25T06:54:27;5.40;92.30
17994;DHT22;9122;48.406;9.984;2023-02-25T06:57:11;5.70;92.30
17994;DHT22;9122;48.406;9.984;2023-02-25T06:59:55;5.50;92.20
17994;DHT22;9122;48.406;9.984;2023-02-25T07:02:42;5.50;92.20
17994;DHT22;9122;48.406;9.984;2023-02-25T07:05:27;5.60;92.00
17994;DHT22;9122;48.406;9.984;2023-02-25T07:08:11;5.70;92.10
17994;DHT22;9122;48.406;9.984;2023-02-25T07:11:08;5.70;92.00
17994;DHT22;9122;48.406;9.984;2023-02-25T07:13:52;5.70;92.00
17994;DHT22;9122;48.406;9.984;2023-02-25T07:16:37;5.80;91.90
17994;DHT22;9122;48.406;9.984;2023-02-25T07:19:21;6.00;91.70
17994;DHT22;9122;48.406;9.984;2023-02-25T07:22:06;6.10;91.60
17994;DHT22;9122;48.406;9.984;2023-02-25T07:24:52;6.40;91.20
17994;DHT22;9122;48.406;9.984;2023-02-25T07:27:39;6.80;90.90
17994;DHT22;9122;48.406;9.984;2023-02-25T07:30:24;7.20;90.30
17994;DHT22;9122;48.406;9.984;2023-02-25T07:33:09;7.50;89.90
17994;DHT22;9122;48.406;9.984;2023-02-25T07:35:56;7.70;88.40
17994;DHT22;9122;48.406;9.984;2023-02-25T07:38:42;7.90;87.20
17994;DHT22;9122;48.406;9.984;2023-02-25T07:41:27;8.00;86.40
17994;DHT22;9122;48.406;9.984;2023-02-25T07:44:12;8.20;85.80
17994;DHT22;9122;48.406;9.984;2023-02-25T07:46:57;8.50;84.70
17994;DHT22;9122;48.406;9.984;2023-02-25T07:49:41;8.60;83.50
17994;DHT22;9122;48.406;9.984;2023-02-25T07:52:26;8.80;82.70
17994;DHT22;9122;48.406;9.984;2023-02-25T07:55:11;8.90;82.20
17994;DHT22;9122;48.406;9.984;2023-02-25T07:57:56;9.00;81.20
17994;DHT22;9122;48.406;9.984;2023-02-25T08:00:41;9.10;80.40
17994;DHT22;9122;48.406;9.984;2023-02-25T08:03:28;9.10;80.00
17994;DHT22;9122;48.406;9.984;2023-02-25T08:06:16;9.00;79.50
17994;DHT22;9122;48.406;9.984;2023-02-25T08:09:01;8.90;80.20
17994;DHT22;9122;48.406;9.984;2023-02-25T08:11:46;8.90;79.90
17994;DHT22;9122;48.406;9.984;2023-02-25T08:14:31;8.80;79.70
17994;DHT22;9122;48.406;9.984;2023-02-25T08:17:15;8.80;79.80
17994;DHT22;9122;48.406;9.984;2023-02-25T08:20:00;8.80;79.20
17994;DHT22;9122;48.406;9.984;2023-02-25T08:22:44;8.90;78.60
17994;DHT22;9122;48.406;9.984;2023-02-25T08:25:29;8.90;78.10
17994;DHT22;9122;48.406;9.984;2023-02-25T08:28:13;8.90;77.30
17994;DHT22;9122;48.406;9.984;2023-02-25T08:30:58;9.00;76.00
17994;DHT22;9122;48.406;9.984;2023-02-25T08:33:45;9.00;76.70
17994;DHT22;9122;48.406;9.984;2023-02-25T08:36:34;9.10;76.50
17994;DHT22;9122;48.406;9.984;2023-02-25T08:39:27;9.40;76.20
17994;DHT22;9122;48.406;9.984;2023-02-25T08:42:12;9.50;75.40
17994;DHT22;9122;48.406;9.984;2023-02-25T08:44:58;9.60;74.80
17994;DHT22;9122;48.406;9.984;2023-02-25T08:47:43;9.50;75.00
17994;DHT22;9122;48.406;9.984;2023-02-25T08:50:28;9.60;75.40
17994;DHT22;9122;48.406;9.984;2023-02-25T08:53:12;9.80;75.00
17994;DHT22;9122;48.406;9.984;2023-02-25T08:56:01;9.90;75.10
17994;DHT22;9122;48.406;9.984;2023-02-25T08:58:45;10.00;74.60
17994;DHT22;9122;48.406;9.984;2023-02-25T09:01:30;9.80;73.70
17994;DHT22;9122;48.406;9.984;2023-02-25T09:04:27;9.70;73.80
17994;DHT22;9122;48.406;9.984;2023-02-25T09:07:12;9.50;74.20
17994;DHT22;9122;48.406;9.984;2023-02-25T09:09:57;9.30;74.60
17994;DHT22;9122;48.406;9.984;2023-02-25T09:12:42;9.10;75.20
17994;DHT22;9122;48.406;9.984;2023-02-25T09:15:27;9.00;75.70
17994;DHT22;9122;48.406;9.984;2023-02-25T09:18:14;8.90;76.20
17994;DHT22;9122;48.406;9.984;2023-02-25T09:20:59;8.80;76.00
17994;DHT22;9122;48.406;9.984;2023-02-25T09:23:43;8.70;76.00
17994;DHT22;9122;48.406;9.984;2023-02-25T09:26:29;8.60;76.10
17994;DHT22;9122;48.406;9.984;2023-02-25T09:29:14;8.50;75.40
17994;DHT22;9122;48.406;9.984;2023-02-25T09:31:59;8.50;75.10
17994;DHT22;9122;48.406;9.984;2023-02-25T09:34:43;8.50;75.00
17994;DHT22;9122;48.406;9.984;2023-02-25T09:37:28;8.40;74.50
17994;DHT22;9122;48.406;9.984;2023-02-25T09:40:14;8.30;74.60
17994;DHT22;9122;48.406;9.984;2023-02-25T09:46:13;8.20;73.80
17994;DHT22;9122;48.406;9.984;2023-02-25T09:49:02;8.20;73.60
17994;DHT22;9122;48.406;9.984;2023-02-25T09:51:58;8.10;73.80
17994;DHT22;9122;48.406;9.984;2023-02-25T09:54:51;8.20;74.10
17994;DHT22;9122;48.406;9.984;2023-02-25T09:57:40;8.40;74.10
17994;DHT22;9122;48.406;9.984;2023-02-25T10:00:24;8.80;73.80
17994;DHT22;9122;48.406;9.984;2023-02-25T10:06:15;9.60;71.00
17994;DHT22;9122;48.406;9.984;2023-02-25T10:26:48;10.90;63.00
17994;DHT22;9122;48.406;9.984;2023-02-25T10:29:52;10.60;63.50
17994;DHT22;9122;48.406;9.984;2023-02-25T10:32:49;10.30;63.80
17994;DHT22;9122;48.406;9.984;2023-02-25T10:35:38;9.70;64.40
17994;DHT22;9122;48.406;9.984;2023-02-25T10:38:22;9.70;66.20
17994;DHT22;9122;48.406;9.984;2023-02-25T10:41:07;9.50;66.20
17994;DHT22;9122;48.406;9.984;2023-02-25T10:43:53;9.40;67.20
17994;DHT22;9122;48.406;9.984;2023-02-25T10:49:27;9.20;68.40
17994;DHT22;9122;48.406;9.984;2023-02-25T10:52:16;9.10;69.10
17994;DHT22;9122;48.406;9.984;2023-02-25T10:55:00;9.00;70.30
17994;DHT22;9122;48.406;9.984;2023-02-25T10:57:50;8.90;70.50
17994;DHT22;9122;48.406;9.984;2023-02-25T11:00:36;8.80;70.20
17994;DHT22;9122;48.406;9.984;2023-02-25T11:03:22;8.80;70.30
17994;DHT22;9122;48.406;9.984;2023-02-25T11:06:34;8.70;70.50
17994;DHT22;9122;48.406;9.984;2023-02-25T11:12:15;8.50;70.80
17994;DHT22;9122;48.406;9.984;2023-02-25T11:18:20;8.40;71.50
17994;DHT22;9122;48.406;9.984;2023-02-25T11:21:12;8.40;71.80
17994;DHT22;9122;48.406;9.984;2023-02-25T11:24:14;8.80;72.70
17994;DHT22;9122;48.406;9.984;2023-02-25T11:27:00;8.60;74.00
17994;DHT22;9122;48.406;9.984;2023-02-25T11:29:49;10.70;71.40
17994;DHT22;9122;48.406;9.984;2023-02-25T11:40:58;8.80;66.80
17994;DHT22;9122;48.406;9.984;2023-02-25T11:43:43;8.80;66.60
17994;DHT22;9122;48.406;9.984;2023-02-25T11:46:29;8.80;66.50
17994;DHT22;9122;48.406;9.984;2023-02-25T11:52:24;9.00;66.40
17994;DHT22;9122;48.406;9.984;2023-02-25T11:55:21;9.00;66.50
17994;DHT22;9122;48.406;9.984;2023-02-25T11:58:44;9.10;66.40
17994;DHT22;9122;48.406;9.984;2023-02-25T15:04:47;7.90;72.70
17994;DHT22;9122;48.406;9.984;2023-02-25T15:20:47;7.80;74.20
17994;DHT22;9122;48.406;9.984;2023-02-25T15:23:49;7.80;74.70
17994;DHT22;9122;48.406;9.984;2023-02-25T15:26:44;7.70;75.10
17994;DHT22;9122;48.406;9.984;2023-02-25T15:32:23;7.70;75.90
17994;DHT22;9122;48.406;9.984;2023-02-25T15:35:22;7.70;74.60
17994;DHT22;9122;48.406;9.984;2023-02-25T15:42:03;7.70;73.80
17994;DHT22;9122;48.406;9.984;2023-02-25T15:44:51;7.60;73.40
17994;DHT22;9122;48.406;9.984;2023-02-25T15:47:36;7.60;72.30
17994;DHT22;9122;48.406;9.984;2023-02-25T15:56:25;7.50;72.70
17994;DHT22;9122;48.406;9.984;2023-02-25T16:02:33;7.50;74.20
17994;DHT22;9122;48.406;9.984;2023-02-25T16:05:21;7.40;72.20
17994;DHT22;9122;48.406;9.984;2023-02-25T16:08:40;7.40;71.30
17994;DHT22;9122;48.406;9.984;2023-02-25T16:14:30;7.30;71.00
17994;DHT22;9122;48.406;9.984;2023-02-25T16:22:59;7.20;71.40
17994;DHT22;9122;48.406;9.984;2023-02-25T16:35:59;7.20;71.50
17994;DHT22;9122;48.406;9.984;2023-02-25T16:39:23;7.10;71.40
17994;DHT22;9122;48.406;9.984;2023-02-25T16:42:16;7.10;71.70
17994;DHT22;9122;48.406;9.984;2023-02-25T16:45:04;7.10;71.40
17994;DHT22;9122;48.406;9.984;2023-02-25T16:47:56;7.10;71.40
17994;DHT22;9122;48.406;9.984;2023-02-25T16:50:45;7.00;71.60
17994;DHT22;9122;48.406;9.984;2023-02-25T16:53:30;7.00;72.00
17994;DHT22;9122;48.406;9.984;2023-02-25T16:56:27;7.00;72.30
17994;DHT22;9122;48.406;9.984;2023-02-25T17:02:21;6.90;72.70
17994;DHT22;9122;48.406;9.984;2023-02-25T17:05:30;6.90;72.70
17994;DHT22;9122;48.406;9.984;2023-02-25T17:08:16;6.90;72.40
17994;DHT22;9122;48.406;9.984;2023-02-25T17:11:04;6.90;73.10
17994;DHT22;9122;48.406;9.984;2023-02-25T17:13:50;6.90;73.20
17994;DHT22;9122;48.406;9.984;2023-02-25T17:16:39;6.90;73.50
17994;DHT22;9122;48.406;9.984;2023-02-25T17:19:26;6.80;73.60
17994;DHT22;9122;48.406;9.984;2023-02-25T17:22:20;6.80;73.20
17994;DHT22;9122;48.406;9.984;2023-02-25T17:25:13;6.80;74.10
17994;DHT22;9122;48.406;9.984;2023-02-25T17:28:05;6.80;73.90
17994;DHT22;9122;48.406;9.984;2023-02-25T17:31:03;6.80;73.90
17994;DHT22;9122;48.406;9.984;2023-02-25T17:33:51;6.80;74.30
17994;DHT22;9122;48.406;9.984;2023-02-25T17:36:39;6.80;75.00
17994;DHT22;9122;48.406;9.984;2023-02-25T17:39:24;6.70;77.20
17994;DHT22;9122;48.406;9.984;2023-02-25T17:42:34;6.70;82.40
17994;DHT22;9122;48.406;9.984;2023-02-25T17:48:25;6.60;87.90
17994;DHT22;9122;48.406;9.984;2023-02-25T17:51:40;6.50;88.90
17994;DHT22;9122;48.406;9.984;2023-02-25T17:54:28;6.30;90.10
17994;DHT22;9122;48.406;9.984;2023-02-25T17:57:23;6.20;90.80
17994;DHT22;9122;48.406;9.984;2023-02-25T18:00:24;6.20;91.40
17994;DHT22;9122;48.406;9.984;2023-02-25T18:03:21;6.10;91.70
17994;DHT22;9122;48.406;9.984;2023-02-25T18:06:41;6.00;93.40
17994;DHT22;9122;48.406;9.984;2023-02-25T18:12:31;5.90;91.70
17994;DHT22;9122;48.406;9.984;2023-02-25T18:15:25;6.10;92.20
17994;DHT22;9122;48.406;9.984;2023-02-25T18:18:19;5.90;93.20
17994;DHT22;9122;48.406;9.984;2023-02-25T18:21:06;5.80;92.00
17994;DHT22;9122;48.406;9.984;2023-02-25T18:23:52;5.80;92.20
17994;DHT22;9122;48.406;9.984;2023-02-25T18:27:00;5.80;92.20
17994;DHT22;9122;48.406;9.984;2023-02-25T18:29:45;5.80;91.80
17994;DHT22;9122;48.406;9.984;2023-02-25T18:32:30;5.80;91.90
17994;DHT22;9122;48.406;9.984;2023-02-25T18:35:19;5.80;92.20
17994;DHT22;9122;48.406;9.984;2023-02-25T18:38:47;4.60;91.80
17994;DHT22;9122;48.406;9.984;2023-02-25T18:41:21;5.90;92.20
17994;DHT22;9122;48.406;9.984;2023-02-25T18:44:26;5.70;92.60
17994;DHT22;9122;48.406;9.984;2023-02-25T18:47:14;5.30;92.40
17994;DHT22;9122;48.406;9.984;2023-02-25T18:50:03;6.00;94.10
17994;DHT22;9122;48.406;9.984;2023-02-25T18:52:49;5.60;92.40
17994;DHT22;9122;48.406;9.984;2023-02-25T18:55:33;5.60;92.00
17994;DHT22;9122;48.406;9.984;2023-02-25T18:58:18;5.60;92.10
17994;DHT22;9122;48.406;9.984;2023-02-25T19:01:04;5.60;92.20
17994;DHT22;9122;48.406;9.984;2023-02-25T19:03:51;5.60;92.20
17994;DHT22;9122;48.406;9.984;2023-02-25T19:06:37;5.50;92.30
17994;DHT22;9122;48.406;9.984;2023-02-25T19:09:23;5.50;92.40
17994;DHT22;9122;48.406;9.984;2023-02-25T19:12:11;5.50;92.40
17994;DHT22;9122;48.406;9.984;2023-02-25T19:15:06;5.50;92.40
17994;DHT22;9122;48.406;9.984;2023-02-25T19:17:53;5.50;92.40
17994;DHT22;9122;48.406;9.984;2023-02-25T19:20:38;5.40;92.50
17994;DHT22;9122;48.406;9.984;2023-02-25T19:23:22;5.40;92.30
17994;DHT22;9122;48.406;9.984;2023-02-25T19:26:10;5.30;92.00
17994;DHT22;9122;48.406;9.984;2023-02-25T19:28:54;5.30;92.00
17994;DHT22;9122;48.406;9.984;2023-02-25T19:31:39;5.20;92.10
17994;DHT22;9122;48.406;9.984;2023-02-25T19:34:29;5.20;92.10
17994;DHT22;9122;48.406;9.984;2023-02-25T19:37:16;5.10;92.00
17994;DHT22;9122;48.406;9.984;2023-02-25T19:40:06;5.10;91.80
17994;DHT22;9122;48.406;9.984;2023-02-25T19:42:53;5.00;91.80
17994;DHT22;9122;48.406;9.984;2023-02-25T19:45:40;5.00;92.10
17994;DHT22;9122;48.406;9.984;2023-02-25T19:48:25;4.90;92.20
17994;DHT22;9122;48.406;9.984;2023-02-25T19:51:09;4.80;92.40
17994;DHT22;9122;48.406;9.984;2023-02-25T19:53:56;4.80;92.50
17994;DHT22;9122;48.406;9.984;2023-02-25T19:56:41;4.70;92.50
17994;DHT22;9122;48.406;9.984;2023-02-25T19:59:28;4.70;92.30
17994;DHT22;9122;48.406;9.984;2023-02-25T20:02:14;4.60;92.30
17994;DHT22;9122;48.406;9.984;2023-02-25T20:04:58;4.60;92.30
17994;DHT22;9122;48.406;9.984;2023-02-25T20:07:43;4.60;92.30
17994;DHT22;9122;48.406;9.984;2023-02-25T20:10:27;4.50;92.50
17994;DHT22;9122;48.406;9.984;2023-02-25T20:13:12;4.50;92.50
17994;DHT22;9122;48.406;9.984;2023-02-25T20:16:02;4.50;92.40
17994;DHT22;9122;48.406;9.984;2023-02-25T20:18:50;4.40;92.50
17994;DHT22;9122;48.406;9.984;2023-02-25T20:21:40;4.40;92.70
17994;DHT22;9122;48.406;9.984;2023-02-25T20:24:25;4.40;92.90
17994;DHT22;9122;48.406;9.984;2023-02-25T20:27:10;4.40;92.90
17994;DHT22;9122;48.406;9.984;2023-02-25T20:29:55;4.40;92.90
17994;DHT22;9122;48.406;9.984;2023-02-25T20:32:41;4.40;93.00
17994;DHT22;9122;48.406;9.984;2023-02-25T20:35:28;4.40;93.10
17994;DHT22;9122;48.406;9.984;2023-02-25T20:38:29;4.40;93.00
17994;DHT22;9122;48.406;9.984;2023-02-25T20:41:15;4.30;93.00
17994;DHT22;9122;48.406;9.984;2023-02-25T20:43:59;4.30;93.00
17994;DHT22;9122;48.406;9.984;2023-02-25T20:46:44;4.30;93.00
17994;DHT22;9122;48.406;9.984;2023-02-25T20:49:29;4.30;93.00
17994;DHT22;9122;48.406;9.984;2023-02-25T20:52:16;4.20;92.80
17994;DHT22;9122;48.406;9.984;2023-02-25T20:55:12;4.20;92.70
17994;DHT22;9122;48.406;9.984;2023-02-25T20:57:56;4.30;92.60
17994;DHT22;9122;48.406;9.984;2023-02-25T21:00:44;4.20;92.30
17994;DHT22;9122;48.406;9.984;2023-02-25T21:03:29;4.20;92.20
17994;DHT22;9122;48.406;9.984;2023-02-25T21:06:14;4.10;92.00
17994;DHT22;9122;48.406;9.984;2023-02-25T21:08:59;4.10;91.90
17994;DHT22;9122;48.406;9.984;2023-02-25T21:11:44;4.10;91.80
17994;DHT22;9122;48.406;9.984;2023-02-25T21:14:28;4.10;91.70
17994;DHT22;9122;48.406;9.984;2023-02-25T21:17:13;4.10;91.50
17994;DHT22;9122;48.406;9.984;2023-02-25T21:20:00;4.10;91.30
17994;DHT22;9122;48.406;9.984;2023-02-25T21:22:52;4.10;91.10
17994;DHT22;9122;48.406;9.984;2023-02-25T21:25:37;4.10;91.00
17994;DHT22;9122;48.406;9.984;2023-02-25T21:28:23;4.10;91.00
17994;DHT22;9122;48.406;9.984;2023-02-25T21:31:12;4.10;90.90
17994;DHT22;9122;48.406;9.984;2023-02-25T21:34:02;4.10;91.00
17994;DHT22;9122;48.406;9.984;2023-02-25T21:36:49;4.00;90.90
17994;DHT22;9122;48.406;9.984;2023-02-25T21:39:39;4.00;90.90
17994;DHT22;9122;48.406;9.984;2023-02-25T21:42:24;4.00;91.00
17994;DHT22;9122;48.406;9.984;2023-02-25T21:45:13;4.00;91.00
17994;DHT22;9122;48.406;9.984;2023-02-25T21:47:58;4.00;91.20
17994;DHT22;9122;48.406;9.984;2023-02-25T21:50:46;4.00;91.00
17994;DHT22;9122;48.406;9.984;2023-02-25T21:53:33;3.90;90.80
17994;DHT22;9122;48.406;9.984;2023-02-25T21:56:25;3.90;90.90
17994;DHT22;9122;48.406;9.984;2023-02-25T21:59:11;3.90;90.80
17994;DHT22;9122;48.406;9.984;2023-02-25T22:01:56;3.90;90.80
17994;DHT22;9122;48.406;9.984;2023-02-25T22:07:28;3.80;90.30
17994;DHT22;9122;48.406;9.984;2023-02-25T22:10:16;4.10;91.60
17994;DHT22;9122;48.406;9.984;2023-02-25T22:13:11;4.90;91.20
17994;DHT22;9122;48.406;9.984;2023-02-25T22:16:02;4.10;92.20
17994;DHT22;9122;48.406;9.984;2023-02-25T22:18:50;3.80;93.70
17994;DHT22;9122;48.406;9.984;2023-02-25T22:21:42;4.00;92.10
17994;DHT22;9122;48.406;9.984;2023-02-25T22:24:28;4.20;92.40
17994;DHT22;9122;48.406;9.984;2023-02-25T22:32:53;3.60;90.80
17994;DHT22;9122;48.406;9.984;2023-02-25T22:36:03;3.50;92.10
17994;DHT22;9122;48.406;9.984;2023-02-25T22:38:52;3.20;92.10
17994;DHT22;9122;48.406;9.984;2023-02-25T22:44:23;3.50;91.80
17994;DHT22;9122;48.406;9.984;2023-02-25T22:47:09;4.10;94.90
17994;DHT22;9122;48.406;9.984;2023-02-25T22:49:56;3.50;93.00
17994;DHT22;9122;48.406;9.984;2023-02-25T22:52:45;3.40;92.20
17994;DHT22;9122;48.406;9.984;2023-02-25T23:01:15;3.50;91.90
17994;DHT22;9122;48.406;9.984;2023-02-25T23:04:20;3.60;92.80
17994;DHT22;9122;48.406;9.984;2023-02-25T23:07:14;4.30;91.90
17994;DHT22;9122;48.406;9.984;2023-02-25T23:10:03;3.60;93.00
17994;DHT22;9122;48.406;9.984;2023-02-25T23:13:02;4.10;92.60
17994;DHT22;9122;48.406;9.984;2023-02-25T23:15:51;3.30;91.30
17994;DHT22;9122;48.406;9.984;2023-02-25T23:18:36;3.20;91.00
17994;DHT22;9122;48.406;9.984;2023-02-25T23:21:24;3.20;91.00
17994;DHT22;9122;48.406;9.984;2023-02-25T23:24:09;3.20;91.00
17994;DHT22;9122;48.406;9.984;2023-02-25T23:27:00;3.20;91.00
17994;DHT22;9122;48.406;9.984;2023-02-25T23:29:47;3.10;91.00
17994;DHT22;9122;48.406;9.984;2023-02-25T23:32:32;3.10;91.10
17994;DHT22;9122;48.406;9.984;2023-02-25T23:35:16;3.10;91.10
17994;DHT22;9122;48.406;9.984;2023-02-25T23:38:04;3.10;91.20
17994;DHT22;9122;48.406;9.984;2023-02-25T23:40:49;3.10;91.20
17994;DHT22;9122;48.406;9.984;2023-02-25T23:43:34;3.00;91.30
17994;DHT22;9122;48.406;9.984;2023-02-25T23:46:19;3.10;91.30
17994;DHT22;9122;48.406;9.984;2023-02-25T23:49:05;3.00;91.00